Airfield :
LOGIN :

Register | Disclaimer

   EN    FR    IT 

 










Legend :    VFR   Marginal VFR   IFR   Intensive IFR   Very Intensive IFR
Visi :
Ceiling :
>= 8 km
>= 3000ft
5 to 8 km
1000 to 3000 ft
1500m to 5 km
500 to 1000 ft
800 to 1500m
200 to 500 ft
< 800m
< 200 ft
Symbols :   Thunderstorms  Fog  Heavy snow  Heavy precipitations  Wind > 20 kt
SIGMETs :     Misc.  Thunderstorms  Icing  Turbulence  Mountain Waves  Volcanic Ashes







- Airport Elevation : 308 ft
- IATA code : POZ


EPPO - Poznan-Lawica

CURRENT METAR :
  • 231430Z 31005KT CAVOK 24/07 Q1015

EXPIRED METARs :
  • 231400Z 30006KT 270V340 CAVOK 22/06 Q1015
  • 231330Z 27003KT 190V340 CAVOK 23/06 Q1015
  • 231300Z 27006KT 210V350 CAVOK 23/06 Q1015
  • 231230Z VRB02KT CAVOK 23/06 Q1015
  • 231200Z 28005KT CAVOK 23/07 Q1016

TAF TAF EPPO
Valid from the 23 at 12:00 until the 24 at 12:00 UTC


231130Z 2312/2412 VRB02KT 9999 SCT040
BECMG 2321/2323 BKN014
TEMPO 2323/2412 4000 SHRA BKN006 BKN012CB
BECMG 2402/2404 29015KT
PROB40
TEMPO 2404/2412 29020G30KT
No reported NOTAMs for that airfield.
1 SIGMET reported for the Warszawa FIR (EPWW) :
 
Frequent thunderstorms
EPWW SIGMET 2 VALID 231210/231610 EPWA
EPWW WARSAW FIR FRQ TS OBS SE OF LINE N5200 E02330 - N5030 E01620 TOP FL350 MOV ENE SLW NC=



MET'MAP, your aeronautical weather chart ! - Copyright ORBIFLY December 2007 - Disclaimer

ORBIFLY MET'MAP TEAM :

Programming & Development : Alexandra Zaïnal
Concept & Development : Baudouin d'Aumeries
Co-Development & Prog : Marc-Olivier Méhu
Technical & hardware support : Manuel Goepfert

Contact : metmap@orbifly.com




SOURCES & CREDITS :

   NOAA